Time;durP1;ratioP1;P1;durP2;ratioP2;P2;SDS_P1;SDS_P2;PMS_P1;PMS_P2;Temp;Humidity;BMP_temperature;BMP_pressure;BME280_temperature;BME280_humidity;BME280_pressure;Samples;Min_cycle;Max_cycle;Signal;HPM_P1;HPM_P2
2021/09/27 00:02:04;;;;;;;0.20;0.20;;;6.10;99.90;;;;;;5012867;28;20269;-80
2021/09/27 00:04:30;;;;;;;0.20;0.20;;;6.10;99.90;;;;;;5011200;28;20230;-79
2021/09/27 00:06:56;;;;;;;0.25;0.25;;;6.10;99.90;;;;;;5011457;28;20265;-80
2021/09/27 00:09:21;;;;;;;0.30;0.30;;;6.10;99.90;;;;;;5003650;28;20242;-79
2021/09/27 00:11:47;;;;;;;0.45;0.45;;;6.10;99.90;;;;;;5020137;28;20198;-80
2021/09/27 00:14:13;;;;;;;0.28;0.28;;;6.10;99.90;;;;;;5011187;28;20211;-80
2021/09/27 00:16:39;;;;;;;0.30;0.30;;;6.10;99.90;;;;;;5011211;28;20713;-79
2021/09/27 00:26:31;;;;;;;0.30;0.30;;;6.30;99.90;;;;;;5012085;28;20202;-79
2021/09/27 00:28:57;;;;;;;0.20;0.20;;;6.30;99.90;;;;;;5012086;28;20207;-80
2021/09/27 00:31:23;;;;;;;0.32;0.32;;;6.30;99.90;;;;;;5011149;28;20199;-80
2021/09/27 00:33:49;;;;;;;0.20;0.20;;;6.30;99.90;;;;;;5012743;28;20240;-80
2021/09/27 00:36:17;;;;;;;0.30;0.30;;;6.30;99.90;;;;;;5011569;28;20277;-80
2021/09/27 00:38:43;;;;;;;0.30;0.30;;;6.20;99.90;;;;;;5011166;28;20337;-80
2021/09/27 00:41:13;;;;;;;0.30;0.30;;;6.20;99.90;;;;;;5012263;28;20233;-80
2021/09/27 00:43:40;;;;;;;0.30;0.30;;;6.20;99.90;;;;;;5010926;28;20214;-80
2021/09/27 00:46:12;;;;;;;0.30;0.30;;;6.20;99.90;;;;;;5009585;28;20214;-79
2021/09/27 00:48:38;;;;;;;0.20;0.20;;;6.20;99.90;;;;;;5009384;28;20209;-79
2021/09/27 00:51:08;;;;;;;0.20;0.20;;;6.20;99.90;;;;;;4996647;28;20199;-79
2021/09/27 00:53:44;;;;;;;0.28;0.28;;;6.10;99.90;;;;;;5008337;28;20310;-79
2021/09/27 00:56:16;;;;;;;5.88;2.88;;;6.10;99.90;;;;;;4998281;28;20211;-79
2021/09/27 00:58:44;;;;;;;0.30;0.30;;;6.20;99.90;;;;;;5027910;28;20222;-80
2021/09/27 01:01:10;;;;;;;0.30;0.30;;;6.20;99.90;;;;;;5016642;23;20616;-71
2021/09/27 01:03:36;;;;;;;0.40;0.40;;;6.20;99.90;;;;;;5015612;28;20206;-73
2021/09/27 01:06:20;;;;;;;0.30;0.30;;;6.30;99.90;;;;;;5014536;28;20230;-74
2021/09/27 01:09:14;;;;;;;0.45;0.45;;;6.30;99.90;;;;;;5014444;28;20215;-74
2021/09/27 01:12:02;;;;;;;0.20;0.20;;;6.30;99.90;;;;;;5015330;28;20222;-72
2021/09/27 01:15:20;;;;;;;0.30;0.30;;;6.30;99.90;;;;;;5014575;28;20559;-73
2021/09/27 01:18:10;;;;;;;0.30;0.30;;;6.30;99.90;;;;;;4974951;28;20701;-73
2021/09/27 01:21:06;;;;;;;0.35;0.35;;;6.30;99.90;;;;;;5013964;28;20282;-73
2021/09/27 01:24:05;;;;;;;0.20;0.20;;;6.40;99.90;;;;;;5015191;28;20557;-73
2021/09/27 01:27:08;;;;;;;0.40;0.40;;;6.30;99.90;;;;;;5014917;28;20344;-73
2021/09/27 01:30:11;;;;;;;0.30;0.30;;;6.40;99.90;;;;;;5015075;28;20750;-73
2021/09/27 01:32:56;;;;;;;0.57;0.57;;;6.60;99.90;;;;;;5013349;28;20298;-73
2021/09/27 01:35:39;;;;;;;0.30;0.30;;;6.70;99.90;;;;;;4998620;28;20199;-73
2021/09/27 01:38:15;;;;;;;0.20;0.20;;;6.80;99.90;;;;;;5000073;28;20230;-73
2021/09/27 01:41:06;;;;;;;0.20;0.20;;;6.90;99.90;;;;;;5013682;28;20571;-73
2021/09/27 01:43:36;;;;;;;0.20;0.20;;;7.00;99.90;;;;;;5013472;28;20229;-73
2021/09/27 01:46:08;;;;;;;0.30;0.30;;;7.10;99.90;;;;;;5012432;28;20298;-73
2021/09/27 01:48:49;;;;;;;0.20;0.20;;;7.20;99.90;;;;;;5014686;28;20210;-73
2021/09/27 01:51:30;;;;;;;0.40;0.40;;;7.20;99.90;;;;;;5013443;28;20769;-73
2021/09/27 01:54:05;;;;;;;0.30;0.30;;;7.30;99.90;;;;;;5012334;28;20689;-73
2021/09/27 01:56:59;;;;;;;0.30;0.30;;;7.30;99.90;;;;;;5014473;28;20217;-73
2021/09/27 01:59:47;;;;;;;0.30;0.30;;;7.40;99.90;;;;;;5012063;28;20253;-72
2021/09/27 02:02:25;;;;;;;0.30;0.30;;;7.50;99.90;;;;;;5010796;28;20266;-74
2021/09/27 02:05:01;;;;;;;0.30;0.30;;;7.50;99.90;;;;;;5013034;28;20210;-73
2021/09/27 02:07:30;;;;;;;0.30;0.30;;;7.60;99.90;;;;;;5012789;28;20668;-73
2021/09/27 02:10:29;;;;;;;0.20;0.20;;;7.70;99.90;;;;;;5012584;28;20215;-73
2021/09/27 02:13:17;;;;;;;0.30;0.30;;;7.70;99.90;;;;;;5000035;28;20265;-72
2021/09/27 02:16:04;;;;;;;0.20;0.20;;;7.70;99.90;;;;;;5012805;28;20206;-73
2021/09/27 02:18:40;;;;;;;0.30;0.30;;;7.70;99.90;;;;;;5011928;28;20215;-73
2021/09/27 02:21:13;;;;;;;0.30;0.30;;;7.60;99.90;;;;;;5013835;28;20260;-73
2021/09/27 02:23:49;;;;;;;0.20;0.20;;;7.60;99.90;;;;;;5014018;28;20529;-74
2021/09/27 02:26:15;;;;;;;0.32;0.32;;;7.50;99.90;;;;;;5014309;28;20218;-74
2021/09/27 02:28:42;;;;;;;0.30;0.30;;;7.40;99.90;;;;;;5012535;28;20234;-73
2021/09/27 02:31:18;;;;;;;0.40;0.40;;;7.40;99.90;;;;;;5013951;28;20241;-73
2021/09/27 02:33:57;;;;;;;0.30;0.30;;;7.30;99.90;;;;;;5013048;28;20213;-73
2021/09/27 02:36:34;;;;;;;0.20;0.20;;;7.20;99.90;;;;;;5012687;28;20589;-73
2021/09/27 02:39:02;;;;;;;0.28;0.28;;;7.10;99.90;;;;;;5013804;28;20298;-74
2021/09/27 02:41:35;;;;;;;0.30;0.30;;;7.00;99.90;;;;;;5012920;28;20611;-73
2021/09/27 02:44:01;;;;;;;0.20;0.20;;;6.90;99.90;;;;;;5013801;28;20293;-73
2021/09/27 02:46:29;;;;;;;0.60;0.60;;;6.90;99.90;;;;;;5013350;28;20215;-73
2021/09/27 02:49:09;;;;;;;0.40;0.40;;;6.80;99.90;;;;;;5013638;28;20322;-73
2021/09/27 02:51:36;;;;;;;0.30;0.30;;;6.70;99.90;;;;;;5012025;28;20735;-73
2021/09/27 02:54:02;;;;;;;0.30;0.30;;;6.70;99.90;;;;;;5013623;28;20207;-72
2021/09/27 02:56:52;;;;;;;0.35;0.35;;;6.60;99.90;;;;;;5011973;28;20211;-73
2021/09/27 02:59:39;;;;;;;0.20;0.20;;;6.60;99.90;;;;;;5012054;28;20286;-73
2021/09/27 03:02:35;;;;;;;0.30;0.30;;;6.50;99.90;;;;;;5011029;28;20242;-73
2021/09/27 03:05:43;;;;;;;0.15;0.15;;;6.50;99.90;;;;;;4994178;28;20204;-73
2021/09/27 03:08:39;;;;;;;0.20;0.20;;;6.50;99.90;;;;;;5014766;28;20233;-72
2021/09/27 03:11:38;;;;;;;0.20;0.20;;;6.50;99.90;;;;;;5012073;28;20207;-73
2021/09/27 03:14:29;;;;;;;0.20;0.20;;;6.60;99.90;;;;;;5013116;28;20732;-73
2021/09/27 03:17:19;;;;;;;0.20;0.20;;;6.50;99.90;;;;;;5013252;28;20576;-73
2021/09/27 03:20:03;;;;;;;0.25;0.25;;;6.40;99.90;;;;;;5011718;28;20217;-73
2021/09/27 03:23:05;;;;;;;0.28;0.28;;;6.60;99.90;;;;;;5012268;28;20210;-74
2021/09/27 03:25:54;;;;;;;0.30;0.30;;;6.60;99.90;;;;;;5010262;28;20206;-74
2021/09/27 03:28:38;;;;;;;0.30;0.30;;;6.50;99.90;;;;;;5011137;28;20207;-73
2021/09/27 03:31:26;;;;;;;0.30;0.30;;;6.40;99.90;;;;;;5011578;28;20245;-73
2021/09/27 03:34:08;;;;;;;0.30;0.30;;;6.40;99.90;;;;;;5011468;28;20203;-73
2021/09/27 03:36:58;;;;;;;0.30;0.30;;;6.30;99.90;;;;;;5011300;28;20228;-73
2021/09/27 03:39:39;;;;;;;0.20;0.20;;;6.30;99.90;;;;;;5012482;28;20207;-73
2021/09/27 03:42:11;;;;;;;1.40;0.93;;;6.20;99.90;;;;;;5011258;28;20333;-73
2021/09/27 03:44:59;;;;;;;0.20;0.20;;;6.10;99.90;;;;;;5012587;28;20234;-73
2021/09/27 03:47:42;;;;;;;0.50;0.50;;;6.20;99.90;;;;;;5009817;28;20219;-73
2021/09/27 03:50:24;;;;;;;1.45;0.77;;;6.20;99.90;;;;;;5012451;28;20210;-73
2021/09/27 03:53:09;;;;;;;0.20;0.20;;;6.10;99.90;;;;;;5011159;28;20226;-72
2021/09/27 03:55:44;;;;;;;0.30;0.30;;;6.00;99.90;;;;;;5012513;28;20209;-73
2021/09/27 03:58:35;;;;;;;0.30;0.30;;;6.00;99.90;;;;;;5012247;28;20206;-73
2021/09/27 04:01:29;;;;;;;0.20;0.20;;;6.00;99.90;;;;;;4993781;28;20257;-73
2021/09/27 04:04:15;;;;;;;0.40;0.40;;;6.00;99.90;;;;;;4996407;28;20215;-72
2021/09/27 04:07:08;;;;;;;0.30;0.30;;;6.10;99.90;;;;;;5010738;28;20211;-73
2021/09/27 04:09:39;;;;;;;0.40;0.40;;;6.30;99.90;;;;;;5010601;28;20206;-72
2021/09/27 04:12:13;;;;;;;0.30;0.30;;;6.30;99.90;;;;;;5010769;28;20634;-73
2021/09/27 04:15:06;;;;;;;0.30;0.30;;;6.30;99.90;;;;;;5010631;28;20277;-73
2021/09/27 04:18:12;;;;;;;0.30;0.30;;;6.30;99.90;;;;;;5011894;28;20282;-73
2021/09/27 04:20:59;;;;;;;0.22;0.22;;;6.40;99.90;;;;;;5010659;28;20205;-72
2021/09/27 04:23:42;;;;;;;0.20;0.20;;;6.50;99.90;;;;;;5010464;28;20220;-74
2021/09/27 04:26:36;;;;;;;0.20;0.20;;;6.50;99.90;;;;;;5012200;28;20205;-73
2021/09/27 04:29:23;;;;;;;1.23;1.00;;;6.50;99.90;;;;;;5011437;28;20259;-73
2021/09/27 04:32:05;;;;;;;0.45;0.45;;;6.50;99.90;;;;;;4993796;28;20561;-73
2021/09/27 04:35:08;;;;;;;0.30;0.30;;;6.50;99.90;;;;;;5007342;28;20653;-73
2021/09/27 04:37:34;;;;;;;0.20;0.20;;;6.50;99.90;;;;;;5010595;28;20530;-73
2021/09/27 04:40:01;;;;;;;0.60;0.60;;;6.40;99.90;;;;;;5011927;28;20207;-73
2021/09/27 04:42:46;;;;;;;0.40;0.40;;;6.50;99.90;;;;;;5010746;28;20218;-73
2021/09/27 04:45:23;;;;;;;0.20;0.20;;;6.50;99.90;;;;;;5010911;28;20265;-72
2021/09/27 04:48:03;;;;;;;0.28;0.28;;;6.60;99.90;;;;;;5012002;28;20245;-73
2021/09/27 04:51:13;;;;;;;0.30;0.30;;;6.80;99.90;;;;;;5011649;28;20272;-72
2021/09/27 04:54:09;;;;;;;5.05;1.42;;;6.90;99.90;;;;;;5011783;28;20206;-73
2021/09/27 04:56:38;;;;;;;0.22;0.22;;;7.10;99.90;;;;;;5009996;28;20206;-73
2021/09/27 04:59:13;;;;;;;0.30;0.30;;;7.40;99.90;;;;;;5011738;28;20253;-74
2021/09/27 05:02:00;;;;;;;0.20;0.20;;;7.60;99.90;;;;;;5010028;28;20739;-74
2021/09/27 05:04:47;;;;;;;0.40;0.40;;;7.60;99.90;;;;;;5010386;28;20707;-75
2021/09/27 05:08:06;;;;;;;0.20;0.20;;;7.80;99.90;;;;;;5010387;28;20215;-74
2021/09/27 05:10:43;;;;;;;0.25;0.25;;;7.90;99.90;;;;;;4934650;28;20216;-74
2021/09/27 05:13:29;;;;;;;0.38;0.38;;;7.90;99.90;;;;;;4995009;28;20206;-74
2021/09/27 05:16:12;;;;;;;0.38;0.38;;;8.00;99.90;;;;;;5009285;28;20207;-75
2021/09/27 05:19:15;;;;;;;0.20;0.20;;;8.00;99.90;;;;;;5011564;28;20264;-75
2021/09/27 05:21:58;;;;;;;0.20;0.20;;;8.10;99.90;;;;;;5011777;28;20256;-75
2021/09/27 05:25:03;;;;;;;0.60;0.60;;;8.10;99.90;;;;;;5010198;28;20210;-75
2021/09/27 05:27:52;;;;;;;0.20;0.20;;;8.20;99.90;;;;;;5011538;28;20265;-74
2021/09/27 05:30:39;;;;;;;0.60;0.60;;;8.30;99.90;;;;;;5000062;28;20314;-75
2021/09/27 05:33:31;;;;;;;0.30;0.30;;;8.30;99.90;;;;;;5010784;28;20234;-75
2021/09/27 05:36:34;;;;;;;0.85;0.85;;;8.40;99.90;;;;;;5010508;28;20207;-75
2021/09/27 05:39:48;;;;;;;0.30;0.30;;;8.40;99.90;;;;;;4990087;28;20222;-75
2021/09/27 05:42:39;;;;;;;0.38;0.38;;;8.50;99.90;;;;;;4964401;28;20214;-75
2021/09/27 05:45:42;;;;;;;5.05;0.85;;;8.50;99.90;;;;;;5011157;28;20230;-75
2021/09/27 05:48:20;;;;;;;0.65;0.65;;;8.60;99.90;;;;;;5013299;28;20236;-74
2021/09/27 05:51:04;;;;;;;5.78;1.75;;;8.60;99.90;;;;;;5013576;28;20213;-74
2021/09/27 05:53:57;;;;;;;0.20;0.20;;;8.70;99.90;;;;;;5014458;28;20294;-74
2021/09/27 05:56:55;;;;;;;0.20;0.20;;;8.80;99.90;;;;;;4996423;28;20289;-75
2021/09/27 05:59:37;;;;;;;1.25;0.65;;;8.90;99.90;;;;;;4999068;28;20206;-75
2021/09/27 06:02:03;;;;;;;0.47;0.40;;;9.00;99.90;;;;;;5014513;28;20241;-75
2021/09/27 06:04:47;;;;;;;0.20;0.20;;;9.10;99.90;;;;;;5014416;28;20572;-75
2021/09/27 06:07:22;;;;;;;0.65;0.65;;;9.20;99.90;;;;;;5013195;28;20211;-76
2021/09/27 06:09:59;;;;;;;0.73;0.73;;;9.30;99.90;;;;;;5014844;28;20256;-74
2021/09/27 06:12:43;;;;;;;0.52;0.40;;;9.40;99.90;;;;;;5014314;28;20207;-75
2021/09/27 06:15:13;;;;;;;5.10;1.13;;;9.40;99.90;;;;;;5014214;28;20211;-76
2021/09/27 06:17:38;;;;;;;0.80;0.73;;;9.50;99.90;;;;;;5014269;28;20290;-75
2021/09/27 06:20:14;;;;;;;0.30;0.30;;;9.50;99.90;;;;;;5013166;28;20304;-76
2021/09/27 06:23:02;;;;;;;1.15;0.70;;;9.60;99.90;;;;;;5011520;28;20321;-75
2021/09/27 06:25:56;;;;;;;8.95;0.90;;;9.60;99.90;;;;;;5025504;28;20203;-75
2021/09/27 06:28:44;;;;;;;0.45;0.45;;;9.60;99.90;;;;;;5007520;28;20222;-75
2021/09/27 06:31:32;;;;;;;2.42;0.80;;;9.70;99.90;;;;;;5014065;28;20352;-75
2021/09/27 06:34:18;;;;;;;0.30;0.30;;;9.70;99.90;;;;;;5012799;28;20664;-75
2021/09/27 06:36:45;;;;;;;0.20;0.20;;;9.80;99.90;;;;;;5012597;28;20203;-75
2021/09/27 06:39:18;;;;;;;0.20;0.20;;;9.80;99.90;;;;;;5011451;28;20198;-75
2021/09/27 06:41:47;;;;;;;0.20;0.20;;;9.90;99.90;;;;;;5014081;28;20256;-75
2021/09/27 06:44:14;;;;;;;0.30;0.30;;;9.90;99.90;;;;;;5011473;28;20210;-75
2021/09/27 06:46:39;;;;;;;0.28;0.28;;;10.00;99.90;;;;;;5013665;28;20214;-75
2021/09/27 06:49:06;;;;;;;8.98;1.42;;;10.00;99.90;;;;;;5013737;28;20676;-74
2021/09/27 06:51:32;;;;;;;0.30;0.30;;;10.00;99.90;;;;;;5013897;28;20670;-73
2021/09/27 06:53:57;;;;;;;0.30;0.30;;;10.00;99.90;;;;;;5012572;28;20213;-76
2021/09/27 06:56:23;;;;;;;1.55;0.95;;;10.00;99.90;;;;;;5011023;28;20696;-75
2021/09/27 06:58:49;;;;;;;1.05;0.90;;;10.10;99.90;;;;;;5013363;28;20210;-75
2021/09/27 07:01:14;;;;;;;0.30;0.30;;;10.20;99.90;;;;;;5013233;28;20235;-75
2021/09/27 07:03:40;;;;;;;0.20;0.20;;;10.20;99.90;;;;;;5012323;28;20210;-75
2021/09/27 07:06:06;;;;;;;0.60;0.60;;;10.30;99.90;;;;;;5012154;28;20257;-75
2021/09/27 07:08:31;;;;;;;1.05;0.55;;;10.30;99.90;;;;;;5013299;28;20574;-75
2021/09/27 07:10:58;;;;;;;0.40;0.40;;;10.30;99.90;;;;;;5013502;28;20201;-75
2021/09/27 07:13:24;;;;;;;0.30;0.30;;;10.40;99.90;;;;;;5012651;28;20628;-76
2021/09/27 07:15:50;;;;;;;0.40;0.40;;;10.40;99.90;;;;;;5011240;28;20207;-76
2021/09/27 07:18:15;;;;;;;0.30;0.30;;;10.50;99.90;;;;;;5010929;28;20535;-75
2021/09/27 07:20:42;;;;;;;0.20;0.20;;;10.60;99.90;;;;;;5012321;28;20233;-76
2021/09/27 07:23:08;;;;;;;0.20;0.20;;;10.60;99.90;;;;;;5013100;28;20669;-75
2021/09/27 07:25:35;;;;;;;0.43;0.38;;;10.60;99.90;;;;;;5010206;28;20226;-75
2021/09/27 07:28:01;;;;;;;0.20;0.20;;;10.70;99.90;;;;;;5011630;28;20310;-75
2021/09/27 07:30:28;;;;;;;0.30;0.30;;;10.70;99.90;;;;;;5026875;28;20293;-75
2021/09/27 07:32:54;;;;;;;0.88;0.75;;;10.70;99.90;;;;;;5013047;28;20203;-75
2021/09/27 07:35:23;;;;;;;0.22;0.22;;;10.80;99.90;;;;;;5009995;28;20674;-75
2021/09/27 07:37:49;;;;;;;0.40;0.40;;;10.90;99.90;;;;;;5011903;28;20209;-75
2021/09/27 07:40:19;;;;;;;0.85;0.80;;;10.90;99.90;;;;;;5012825;28;20677;-75
2021/09/27 07:42:46;;;;;;;1.98;0.57;;;11.00;99.90;;;;;;5011750;28;20217;-75
2021/09/27 07:45:14;;;;;;;0.80;0.80;;;11.00;99.90;;;;;;5012895;28;20260;-75
2021/09/27 07:47:42;;;;;;;0.20;0.20;;;11.10;99.90;;;;;;5012575;28;20653;-75
2021/09/27 07:50:10;;;;;;;0.20;0.20;;;11.10;99.90;;;;;;5011281;28;20205;-75
2021/09/27 07:52:35;;;;;;;0.20;0.20;;;11.20;99.90;;;;;;5011333;28;20221;-75
2021/09/27 07:55:04;;;;;;;0.38;0.38;;;11.20;99.90;;;;;;5011235;28;20210;-75
2021/09/27 07:57:30;;;;;;;0.30;0.30;;;11.10;99.90;;;;;;5010762;28;20221;-75
2021/09/27 07:59:56;;;;;;;0.30;0.30;;;11.10;99.90;;;;;;5011284;28;20215;-75
2021/09/27 08:02:22;;;;;;;0.60;0.60;;;11.20;99.90;;;;;;5011919;28;20238;-76
2021/09/27 08:04:48;;;;;;;0.22;0.22;;;11.30;99.90;;;;;;5009703;28;20207;-76
2021/09/27 08:07:15;;;;;;;0.20;0.20;;;11.30;99.90;;;;;;5012011;28;20213;-76
2021/09/27 08:09:41;;;;;;;0.20;0.20;;;11.40;99.90;;;;;;5009698;28;20669;-75
2021/09/27 08:12:07;;;;;;;0.20;0.20;;;11.30;99.90;;;;;;5010278;28;20199;-76
2021/09/27 08:14:34;;;;;;;2.50;1.08;;;11.40;99.90;;;;;;5010801;28;20198;-75
2021/09/27 08:17:00;;;;;;;0.20;0.20;;;11.40;99.90;;;;;;5009264;28;20595;-75
2021/09/27 08:19:27;;;;;;;0.28;0.28;;;11.50;99.90;;;;;;5010631;28;20285;-76
2021/09/27 08:21:53;;;;;;;0.20;0.20;;;11.60;99.90;;;;;;5012069;28;20662;-75
2021/09/27 08:24:20;;;;;;;0.35;0.35;;;11.60;99.90;;;;;;5009147;28;20551;-75
2021/09/27 08:26:46;;;;;;;0.90;0.90;;;11.70;99.90;;;;;;4992606;28;20306;-75
2021/09/27 08:29:12;;;;;;;0.75;0.75;;;11.70;99.90;;;;;;5010167;28;20293;-75
2021/09/27 08:31:38;;;;;;;0.60;0.60;;;11.70;99.90;;;;;;5011823;28;20295;-76
2021/09/27 08:34:03;;;;;;;1.25;1.15;;;11.80;99.90;;;;;;5009941;28;20199;-75
2021/09/27 08:36:30;;;;;;;1.10;1.10;;;11.90;99.90;;;;;;5012014;28;20333;-75
2021/09/27 08:38:56;;;;;;;0.55;0.55;;;11.90;99.90;;;;;;5010616;28;20301;-75
2021/09/27 08:41:43;;;;;;;0.60;0.60;;;12.00;99.90;;;;;;5010507;28;20203;-75
2021/09/27 08:44:49;;;;;;;2.35;1.30;;;12.10;99.90;;;;;;5012410;28;20206;-75
2021/09/27 08:47:39;;;;;;;0.55;0.55;;;12.10;99.90;;;;;;4969498;28;20240;-76
2021/09/27 08:50:12;;;;;;;0.73;0.73;;;12.20;99.90;;;;;;4993360;28;20260;-75
2021/09/27 08:52:41;;;;;;;0.65;0.65;;;12.20;99.90;;;;;;5010462;28;20214;-76
2021/09/27 08:55:11;;;;;;;0.60;0.60;;;12.20;99.90;;;;;;5012192;28;20218;-76
2021/09/27 08:57:42;;;;;;;0.65;0.65;;;12.20;99.90;;;;;;5010413;28;20202;-76
2021/09/27 09:00:32;;;;;;;0.70;0.70;;;12.20;99.90;;;;;;5009374;28;20608;-75
2021/09/27 09:03:22;;;;;;;0.93;0.93;;;12.20;99.90;;;;;;4997197;28;20222;-75
2021/09/27 09:05:54;;;;;;;0.80;0.80;;;12.30;99.90;;;;;;5010303;28;20614;-74
2021/09/27 09:08:27;;;;;;;0.60;0.60;;;12.40;99.90;;;;;;5011296;28;20213;-75
2021/09/27 09:11:06;;;;;;;0.93;0.93;;;12.50;99.90;;;;;;5010406;28;20673;-75
2021/09/27 09:13:38;;;;;;;0.50;0.50;;;12.60;99.90;;;;;;5010073;28;20233;-76
2021/09/27 09:16:08;;;;;;;0.60;0.60;;;12.70;99.90;;;;;;5011787;28;20281;-75
2021/09/27 09:18:42;;;;;;;0.68;0.68;;;12.80;99.90;;;;;;5011398;28;20270;-76
2021/09/27 09:21:18;;;;;;;0.60;0.60;;;12.80;99.90;;;;;;5014126;28;20211;-75
2021/09/27 09:23:52;;;;;;;1.27;0.88;;;12.90;99.90;;;;;;5014196;28;20725;-75
2021/09/27 09:26:29;;;;;;;0.52;0.52;;;12.80;99.90;;;;;;5013720;28;20214;-75
2021/09/27 09:28:56;;;;;;;0.60;0.60;;;12.80;99.90;;;;;;5015007;28;20257;-75
2021/09/27 09:31:24;;;;;;;0.50;0.50;;;12.60;99.90;;;;;;5013548;28;20209;-75
2021/09/27 09:33:52;;;;;;;0.50;0.50;;;12.60;99.90;;;;;;5012674;28;20587;-75
2021/09/27 09:36:43;;;;;;;0.50;0.50;;;12.60;99.90;;;;;;5014986;28;20211;-75
2021/09/27 09:39:34;;;;;;;0.80;0.80;;;12.50;99.90;;;;;;5014718;28;20233;-75
2021/09/27 09:42:05;;;;;;;1.55;1.10;;;12.40;99.90;;;;;;5013657;28;20207;-75
2021/09/27 09:44:37;;;;;;;0.80;0.80;;;12.40;99.90;;;;;;5013606;28;20206;-74
2021/09/27 09:47:04;;;;;;;3.03;1.05;;;12.30;99.90;;;;;;5013486;28;20605;-74
2021/09/27 09:49:48;;;;;;;0.70;0.70;;;12.30;99.90;;;;;;5022147;28;20210;-74
2021/09/27 09:52:25;;;;;;;0.60;0.60;;;12.30;99.90;;;;;;5013565;28;20209;-73
2021/09/27 09:54:54;;;;;;;0.63;0.63;;;12.40;99.90;;;;;;5013469;28;20224;-74
2021/09/27 09:57:28;;;;;;;0.70;0.70;;;12.40;99.90;;;;;;5013048;28;20218;-74
2021/09/27 10:00:00;;;;;;;0.52;0.52;;;12.40;99.90;;;;;;5006469;28;20206;-74
2021/09/27 10:02:27;;;;;;;0.70;0.70;;;12.50;99.90;;;;;;5003242;28;20231;-74
2021/09/27 10:05:04;;;;;;;0.90;0.90;;;12.60;99.90;;;;;;5011894;28;20211;-74
2021/09/27 10:07:46;;;;;;;0.85;0.85;;;12.80;99.90;;;;;;5012144;28;20202;-75
2021/09/27 10:10:29;;;;;;;0.50;0.50;;;12.80;99.90;;;;;;5013284;28;20214;-75
2021/09/27 10:12:56;;;;;;;1.45;1.02;;;12.70;99.90;;;;;;5024688;28;20268;-75
2021/09/27 10:15:34;;;;;;;0.60;0.60;;;12.70;99.90;;;;;;5012737;28;20207;-75
2021/09/27 10:18:02;;;;;;;0.75;0.75;;;12.60;99.90;;;;;;5013071;28;20206;-75
2021/09/27 10:20:37;;;;;;;0.60;0.60;;;12.60;99.90;;;;;;5012836;28;20214;-75
2021/09/27 10:23:06;;;;;;;0.60;0.60;;;12.70;99.90;;;;;;5011732;28;20268;-75
2021/09/27 10:25:41;;;;;;;0.77;0.77;;;12.70;99.90;;;;;;5014281;28;20214;-74
2021/09/27 10:28:19;;;;;;;0.50;0.50;;;12.70;99.90;;;;;;5012949;28;20300;-76
2021/09/27 10:31:11;;;;;;;0.80;0.80;;;12.80;99.90;;;;;;5012503;28;20203;-75
2021/09/27 10:33:42;;;;;;;1.08;1.08;;;13.00;99.90;;;;;;5008362;28;20214;-75
2021/09/27 10:36:40;;;;;;;0.65;0.65;;;13.20;99.90;;;;;;5003793;28;20256;-75
2021/09/27 10:39:08;;;;;;;11.70;2.35;;;13.30;99.90;;;;;;5012434;28;20230;-75
2021/09/27 10:41:37;;;;;;;0.60;0.60;;;13.40;99.90;;;;;;5012473;28;20206;-76
2021/09/27 10:44:16;;;;;;;0.75;0.70;;;13.40;99.90;;;;;;5013956;28;20640;-75
2021/09/27 10:46:45;;;;;;;0.80;0.80;;;13.40;99.90;;;;;;5012589;28;20302;-76
2021/09/27 10:49:24;;;;;;;1.20;0.95;;;13.40;99.90;;;;;;5014141;28;20207;-75
2021/09/27 10:52:06;;;;;;;0.50;0.50;;;13.50;99.90;;;;;;5013669;28;20206;-75
2021/09/27 10:54:41;;;;;;;0.60;0.60;;;13.40;99.90;;;;;;5013573;28;20209;-76
2021/09/27 10:57:18;;;;;;;0.50;0.50;;;13.40;99.90;;;;;;5013417;28;20271;-76
2021/09/27 11:00:02;;;;;;;1.33;1.08;;;13.40;99.90;;;;;;5011025;28;20740;-76
2021/09/27 11:02:42;;;;;;;0.80;0.80;;;13.40;99.90;;;;;;5012644;28;20803;-74
2021/09/27 11:05:11;;;;;;;0.85;0.85;;;13.50;99.90;;;;;;5012000;28;20209;-75
2021/09/27 11:07:48;;;;;;;0.50;0.50;;;13.50;99.90;;;;;;5012042;28;20256;-75
2021/09/27 11:10:26;;;;;;;4.22;0.90;;;13.50;99.90;;;;;;5012575;28;20202;-75
2021/09/27 11:12:54;;;;;;;0.95;0.90;;;13.70;99.90;;;;;;5020143;28;20202;-76
2021/09/27 11:15:25;;;;;;;1.20;0.93;;;13.70;99.90;;;;;;5013491;28;20202;-75
2021/09/27 11:18:24;;;;;;;0.60;0.60;;;13.80;99.90;;;;;;5012735;28;20290;-76
2021/09/27 11:20:50;;;;;;;0.70;0.70;;;13.70;99.90;;;;;;4998634;28;20210;-75
2021/09/27 11:23:37;;;;;;;0.47;0.47;;;13.70;99.90;;;;;;5011627;28;20216;-75
2021/09/27 11:26:18;;;;;;;0.82;0.82;;;13.80;99.90;;;;;;5011414;28;20207;-78
2021/09/27 11:29:03;;;;;;;0.70;0.70;;;13.80;99.90;;;;;;5012851;28;20205;-75
2021/09/27 11:31:40;;;;;;;2.75;1.00;;;13.80;99.90;;;;;;5010250;28;20199;-76
2021/09/27 11:34:08;;;;;;;0.73;0.73;;;13.90;99.90;;;;;;5010079;28;20205;-76
2021/09/27 11:36:46;;;;;;;0.98;0.88;;;14.00;99.90;;;;;;5012642;28;20210;-74
2021/09/27 11:39:16;;;;;;;0.93;0.93;;;14.10;99.90;;;;;;5013102;28;20202;-76
2021/09/27 11:42:10;;;;;;;0.80;0.80;;;14.20;99.90;;;;;;5010463;28;20194;-75
2021/09/27 11:44:49;;;;;;;0.68;0.68;;;14.40;99.90;;;;;;5011389;28;20210;-76
2021/09/27 11:47:40;;;;;;;0.63;0.63;;;15.00;99.90;;;;;;5011323;28;20681;-76
2021/09/27 11:50:10;;;;;;;0.93;0.93;;;15.80;99.90;;;;;;5012370;28;20260;-75
2021/09/27 11:52:54;;;;;;;0.40;0.40;;;16.30;99.90;;;;;;5011082;28;20688;-76
2021/09/27 11:55:37;;;;;;;0.50;0.50;;;16.30;99.90;;;;;;5009693;28;20574;-76
2021/09/27 11:58:35;;;;;;;0.60;0.60;;;16.40;99.90;;;;;;5012113;28;20260;-75
2021/09/27 12:01:21;;;;;;;0.50;0.50;;;16.30;99.90;;;;;;5011450;28;20235;-76
2021/09/27 12:04:11;;;;;;;0.95;0.82;;;16.30;99.90;;;;;;5012584;28;20241;-75
2021/09/27 12:06:43;;;;;;;0.50;0.50;;;16.20;99.90;;;;;;5011999;28;20210;-75
2021/09/27 12:09:23;;;;;;;0.50;0.50;;;16.10;99.90;;;;;;5002905;28;20198;-76
2021/09/27 12:11:55;;;;;;;0.50;0.50;;;16.00;99.90;;;;;;4996403;28;20564;-76
2021/09/27 12:14:44;;;;;;;0.47;0.47;;;15.90;99.90;;;;;;5010696;28;20207;-76
2021/09/27 12:17:14;;;;;;;0.63;0.45;;;15.80;99.90;;;;;;5010832;28;20705;-75
2021/09/27 12:20:24;;;;;;;0.52;0.52;;;15.80;99.90;;;;;;5009560;28;20210;-75
2021/09/27 12:22:54;;;;;;;3.45;1.75;;;16.00;99.90;;;;;;5004300;28;20580;-75
2021/09/27 12:25:25;;;;;;;0.85;0.82;;;16.00;99.90;;;;;;5023517;28;20210;-75
2021/09/27 12:28:00;;;;;;;0.40;0.40;;;15.90;99.90;;;;;;5010728;28;20252;-76
2021/09/27 12:30:30;;;;;;;0.50;0.50;;;15.80;99.90;;;;;;5010526;28;20709;-75
2021/09/27 12:33:00;;;;;;;0.65;0.65;;;15.60;99.90;;;;;;5009564;28;20210;-77
2021/09/27 12:35:47;;;;;;;0.60;0.60;;;15.60;99.90;;;;;;5011657;28;20202;-76
2021/09/27 12:38:19;;;;;;;6.88;1.17;;;15.60;99.90;;;;;;5012698;28;20285;-75
2021/09/27 12:40:51;;;;;;;0.40;0.40;;;15.60;99.90;;;;;;5010903;28;20241;-75
2021/09/27 12:43:20;;;;;;;1.48;1.38;;;15.50;99.90;;;;;;5009487;28;20561;-77
2021/09/27 12:45:48;;;;;;;1.85;1.48;;;15.40;99.90;;;;;;5012178;28;20692;-76
2021/09/27 12:48:32;;;;;;;0.40;0.40;;;15.40;99.90;;;;;;5012165;28;20213;-76
2021/09/27 12:51:15;;;;;;;0.50;0.50;;;15.50;99.90;;;;;;5010583;28;20260;-76
2021/09/27 12:54:22;;;;;;;0.40;0.40;;;15.50;99.90;;;;;;5012087;28;20214;-75
2021/09/27 12:56:48;;;;;;;0.32;0.32;;;15.50;99.90;;;;;;5014284;28;20213;-76
2021/09/27 12:59:18;;;;;;;0.68;0.68;;;15.50;99.90;;;;;;5014782;28;20677;-76
2021/09/27 13:01:58;;;;;;;0.55;0.55;;;15.60;99.90;;;;;;5012876;28;20603;-77
2021/09/27 13:04:32;;;;;;;0.50;0.50;;;15.60;99.90;;;;;;5025480;28;20577;-77
2021/09/27 13:07:10;;;;;;;0.40;0.40;;;15.70;99.90;;;;;;5014390;28;20278;-77
2021/09/27 13:09:54;;;;;;;3.83;1.58;;;15.70;99.90;;;;;;5015320;28;20210;-78
2021/09/27 13:12:38;;;;;;;0.40;0.40;;;15.60;99.90;;;;;;5014115;28;20207;-77
2021/09/27 13:15:12;;;;;;;0.40;0.40;;;15.60;99.90;;;;;;5015818;28;20210;-76
2021/09/27 13:18:03;;;;;;;2.58;1.98;;;15.60;99.90;;;;;;5013932;28;20206;-79
2021/09/27 13:20:33;;;;;;;0.57;0.57;;;15.70;99.90;;;;;;5015473;28;20660;-82
2021/09/27 13:23:00;;;;;;;1.00;0.73;;;15.70;99.90;;;;;;5016336;28;20349;-82
2021/09/27 13:25:30;;;;;;;0.40;0.40;;;15.70;99.90;;;;;;5014140;28;20678;-80
2021/09/27 13:28:02;;;;;;;0.50;0.50;;;15.70;99.90;;;;;;5014445;28;20221;-75
2021/09/27 13:30:32;;;;;;;0.60;0.60;;;15.70;99.90;;;;;;5012570;28;20230;-77
2021/09/27 13:33:05;;;;;;;2.55;1.45;;;15.70;99.90;;;;;;5013993;28;20203;-77
2021/09/27 13:35:40;;;;;;;0.50;0.50;;;15.80;99.90;;;;;;5013878;28;20207;-76
2021/09/27 13:38:08;;;;;;;0.55;0.55;;;15.90;99.90;;;;;;5015445;28;20215;-76
2021/09/27 13:40:42;;;;;;;0.50;0.50;;;16.00;99.90;;;;;;5013646;28;20608;-76
2021/09/27 13:43:19;;;;;;;0.60;0.60;;;16.20;99.90;;;;;;5012594;28;20217;-76
2021/09/27 13:45:48;;;;;;;0.50;0.43;;;16.40;99.90;;;;;;5026601;28;20211;-76
2021/09/27 13:48:14;;;;;;;0.40;0.40;;;16.50;99.90;;;;;;5015027;28;20241;-76
2021/09/27 13:50:43;;;;;;;0.60;0.60;;;16.60;99.90;;;;;;5013443;28;20673;-76
2021/09/27 13:53:15;;;;;;;1.10;0.50;;;16.70;99.90;;;;;;5014858;28;20627;-77